createdAt,value
2022-11-29T00:01:42.771Z,79.28
2022-11-29T00:04:15.051Z,79.62
2022-11-29T00:06:41.986Z,80.02
2022-11-29T00:09:12.448Z,80.17
2022-11-29T00:11:59.702Z,79.79
2022-11-29T00:14:31.203Z,82.69
2022-11-29T00:17:02.585Z,84.34
2022-11-29T00:19:34.621Z,84.19
2022-11-29T00:22:03.405Z,82.77
2022-11-29T00:24:32.351Z,82.57
2022-11-29T00:27:02.129Z,83.87
2022-11-29T00:29:30.320Z,83.91
2022-11-29T00:31:57.515Z,83.63
2022-11-29T00:34:27.275Z,83.41
2022-11-29T00:36:54.227Z,81.23
2022-11-29T00:39:24.482Z,82.48
2022-11-29T00:41:54.900Z,84.04
2022-11-29T00:44:24.037Z,84.66
2022-11-29T00:46:51.235Z,83.82
2022-11-29T00:49:23.273Z,83.50
2022-11-29T00:51:50.695Z,83.60
2022-11-29T00:54:20.244Z,84.19
2022-11-29T00:56:47.404Z,83.43
2022-11-29T00:59:14.502Z,83.14
2022-11-29T01:01:41.615Z,83.33
2022-11-29T01:04:08.579Z,82.46
2022-11-29T01:06:35.702Z,83.73
2022-11-29T01:09:03.055Z,84.32
2022-11-29T01:11:32.556Z,85.22
2022-11-29T01:14:04.250Z,85.43
2022-11-29T01:16:34.731Z,84.70
2022-11-29T01:19:02.653Z,84.82
2022-11-29T01:21:29.923Z,86.67
2022-11-29T01:23:57.510Z,86.84
2022-11-29T01:26:28.746Z,85.10
2022-11-29T01:28:58.563Z,83.98
2022-11-29T01:31:33.371Z,84.13
2022-11-29T01:34:03.543Z,83.66
2022-11-29T01:36:35.670Z,83.62
2022-11-29T01:39:06.801Z,83.93
2022-11-29T01:41:37.080Z,83.54
2022-11-29T01:44:12.801Z,84.86
2022-11-29T01:46:46.024Z,85.87
2022-11-29T01:49:25.047Z,86.13
2022-11-29T01:52:05.846Z,85.90
2022-11-29T01:54:40.317Z,88.03
2022-11-29T01:57:11.699Z,86.56
2022-11-29T01:59:51.170Z,87.44
2022-11-29T02:02:27.665Z,86.45
2022-11-29T02:04:55.121Z,86.03
2022-11-29T02:07:22.524Z,86.52
2022-11-29T02:09:52.482Z,87.88
2022-11-29T02:12:45.327Z,86.09
2022-11-29T02:15:43.446Z,87.77
2022-11-29T02:18:15.911Z,89.33
2022-11-29T02:21:10.967Z,87.33
2022-11-29T02:24:08.474Z,86.33
2022-11-29T02:27:07.548Z,87.87
2022-11-29T02:30:02.711Z,87.52
2022-11-29T02:32:56.744Z,86.99
2022-11-29T02:35:44.969Z,87.44
2022-11-29T02:38:51.254Z,87.21
2022-11-29T02:41:46.848Z,86.48
2022-11-29T02:44:49.399Z,86.71
2022-11-29T02:47:35.337Z,85.72
2022-11-29T02:50:25.113Z,84.87
2022-11-29T02:53:36.140Z,85.49
2022-11-29T02:56:31.495Z,84.37
2022-11-29T02:59:54.014Z,83.94
2022-11-29T03:03:02.407Z,83.57
2022-11-29T03:05:50.990Z,84.71
2022-11-29T03:08:46.921Z,86.04
2022-11-29T03:11:52.032Z,85.58
2022-11-29T03:14:30.099Z,84.77
2022-11-29T03:17:49.329Z,84.32
2022-11-29T03:20:45.814Z,84.37
2022-11-29T03:23:38.204Z,84.39
2022-11-29T03:26:15.212Z,83.82
2022-11-29T03:29:23.948Z,83.31
2022-11-29T03:32:06.921Z,82.90
2022-11-29T03:35:30.362Z,84.02
2022-11-29T03:38:09.835Z,85.12
2022-11-29T03:40:54.531Z,85.26
2022-11-29T03:44:09.763Z,84.70
2022-11-29T03:47:08.975Z,85.17
2022-11-29T03:49:40.012Z,83.88
2022-11-29T03:52:21.204Z,86.34
2022-11-29T03:55:45.376Z,86.67
2022-11-29T03:58:18.368Z,85.75
2022-11-29T04:00:48.270Z,86.28
2022-11-29T04:04:15.855Z,86.12
2022-11-29T04:07:24.293Z,86.16
2022-11-29T04:10:11.621Z,85.29
2022-11-29T04:13:22.065Z,84.83
2022-11-29T04:15:51.705Z,83.99
2022-11-29T04:18:54.802Z,84.00
2022-11-29T04:21:31.169Z,85.83
2022-11-29T04:24:30.713Z,84.82
2022-11-29T04:27:51.856Z,85.51
2022-11-29T04:30:24.127Z,86.12
2022-11-29T04:33:31.981Z,86.10
2022-11-29T04:36:44.935Z,85.03
2022-11-29T04:39:17.125Z,85.74
2022-11-29T04:42:09.558Z,86.45
2022-11-29T04:44:48.500Z,86.56
2022-11-29T04:47:33.750Z,87.11
2022-11-29T04:50:07.078Z,85.59
2022-11-29T04:53:26.176Z,85.54
2022-11-29T04:56:26.110Z,85.73
2022-11-29T04:59:39.389Z,85.52
2022-11-29T05:02:12.085Z,84.13
2022-11-29T05:05:06.916Z,84.24
2022-11-29T05:08:06.145Z,83.89
2022-11-29T05:11:14.684Z,84.31
2022-11-29T05:13:59.038Z,83.94
2022-11-29T05:17:27.546Z,84.36
2022-11-29T05:20:21.736Z,83.14
2022-11-29T05:23:06.629Z,82.56
2022-11-29T05:25:48.766Z,83.18
2022-11-29T05:29:02.283Z,83.38
2022-11-29T05:31:53.514Z,84.24
2022-11-29T05:35:04.009Z,84.82
2022-11-29T05:38:16.505Z,83.84
2022-11-29T05:41:23.929Z,84.40
2022-11-29T05:43:59.609Z,83.86
2022-11-29T05:46:32.375Z,83.73
2022-11-29T05:49:17.243Z,84.96
2022-11-29T05:52:06.288Z,87.95
2022-11-29T05:54:45.218Z,88.51
2022-11-29T05:57:31.542Z,88.90
2022-11-29T06:00:01.971Z,89.06
2022-11-29T06:03:06.339Z,87.84
2022-11-29T06:05:42.616Z,87.88
2022-11-29T06:08:47.257Z,87.79
2022-11-29T06:11:25.682Z,87.97
2022-11-29T06:14:43.352Z,87.97
2022-11-29T06:17:38.633Z,88.07
2022-11-29T06:20:36.075Z,88.60
2022-11-29T06:23:18.146Z,89.85
2022-11-29T06:26:25.217Z,89.59
2022-11-29T06:29:44.956Z,88.56
2022-11-29T06:32:55.492Z,89.35
2022-11-29T06:35:45.874Z,89.34
2022-11-29T06:38:29.790Z,88.64
2022-11-29T06:41:02.071Z,88.48
2022-11-29T06:43:30.639Z,88.59
2022-11-29T06:46:14.930Z,88.62
2022-11-29T06:49:09.374Z,87.75
2022-11-29T06:52:00.506Z,87.80
2022-11-29T06:54:54.050Z,86.66
2022-11-29T06:58:08.210Z,86.38
2022-11-29T07:00:52.099Z,86.62
2022-11-29T07:03:46.788Z,86.88
2022-11-29T07:06:24.399Z,85.44
2022-11-29T07:09:00.219Z,85.48
2022-11-29T07:11:28.406Z,84.59
2022-11-29T07:13:58.098Z,83.59
2022-11-29T07:16:37.185Z,83.71
2022-11-29T07:19:32.943Z,82.70
2022-11-29T07:22:30.960Z,83.20
2022-11-29T07:25:21.010Z,83.32
2022-11-29T07:27:52.640Z,84.98
2022-11-29T07:30:43.635Z,83.72
2022-11-29T07:33:28.871Z,83.98
2022-11-29T07:36:06.833Z,83.86
2022-11-29T07:38:58.832Z,85.05
2022-11-29T07:41:44.389Z,83.66
2022-11-29T07:44:46.862Z,85.08
2022-11-29T07:47:14.148Z,85.00
2022-11-29T07:49:45.699Z,84.10
2022-11-29T07:52:15.672Z,83.70
2022-11-29T07:54:45.783Z,83.45
2022-11-29T07:57:15.588Z,82.62
2022-11-29T07:59:42.590Z,84.59
2022-11-29T08:02:12.115Z,85.48
2022-11-29T08:04:46.010Z,84.50
2022-11-29T08:07:13.214Z,84.34
2022-11-29T08:09:40.279Z,83.67
2022-11-29T08:12:07.450Z,83.32
2022-11-29T08:14:34.528Z,84.49
2022-11-29T08:17:04.018Z,83.97
2022-11-29T08:19:33.308Z,85.03
2022-11-29T08:22:02.666Z,83.52
2022-11-29T08:24:29.888Z,84.19
2022-11-29T08:26:59.375Z,84.14
2022-11-29T08:29:26.477Z,84.38
2022-11-29T08:31:56.219Z,84.48
2022-11-29T08:34:24.987Z,84.19
2022-11-29T08:36:57.565Z,84.53
2022-11-29T08:39:24.785Z,83.81
2022-11-29T08:41:52.031Z,83.93
2022-11-29T08:44:19.159Z,84.77
2022-11-29T08:47:04.848Z,85.82
2022-11-29T08:49:33.420Z,84.86
2022-11-29T08:52:18.970Z,84.90
2022-11-29T08:54:48.430Z,83.54
2022-11-29T08:57:39.325Z,84.98
2022-11-29T09:00:07.958Z,83.86
2022-11-29T09:02:36.731Z,84.99
2022-11-29T09:05:05.763Z,84.38
2022-11-29T09:07:33.500Z,84.45
2022-11-29T09:10:05.103Z,85.56
2022-11-29T09:12:41.437Z,84.33
2022-11-29T09:15:11.999Z,85.59
2022-11-29T09:17:41.496Z,85.08
2022-11-29T09:20:09.223Z,85.80
2022-11-29T09:22:40.561Z,84.39
2022-11-29T09:25:10.270Z,85.39
2022-11-29T09:27:37.314Z,87.06
2022-11-29T09:30:05.192Z,87.19
2022-11-29T09:32:32.428Z,86.35
2022-11-29T09:35:01.825Z,87.10
2022-11-29T09:37:31.270Z,86.67
2022-11-29T09:39:58.316Z,85.91
2022-11-29T09:42:56.662Z,84.60
2022-11-29T09:45:42.578Z,83.67
2022-11-29T09:48:22.886Z,83.43
2022-11-29T09:51:13.919Z,84.55
2022-11-29T09:54:06.357Z,83.96
2022-11-29T09:56:42.569Z,84.24
2022-11-29T09:59:18.835Z,84.35
2022-11-29T10:01:53.789Z,83.92
2022-11-29T10:04:29.751Z,83.26
2022-11-29T10:07:14.206Z,81.27
2022-11-29T10:09:52.306Z,80.40
2022-11-29T10:13:12.527Z,79.94
2022-11-29T10:15:44.139Z,79.18
2022-11-29T10:18:38.582Z,79.67
2022-11-29T10:21:21.727Z,79.18
2022-11-29T10:23:57.870Z,79.01
2022-11-29T10:26:33.586Z,78.65
2022-11-29T10:29:04.668Z,78.33
2022-11-29T10:31:43.369Z,77.62
2022-11-29T10:34:23.060Z,77.02
2022-11-29T10:36:59.725Z,77.00
2022-11-29T10:39:59.622Z,76.98
2022-11-29T10:42:47.706Z,77.31
2022-11-29T10:45:35.553Z,77.45
2022-11-29T10:48:04.272Z,78.89
2022-11-29T10:50:36.970Z,78.58
2022-11-29T10:53:26.611Z,78.17
2022-11-29T10:56:00.848Z,77.33
2022-11-29T10:58:32.594Z,77.05
2022-11-29T11:01:02.468Z,76.83
2022-11-29T11:03:53.140Z,75.81
2022-11-29T11:06:44.702Z,75.48
2022-11-29T11:09:22.811Z,77.11
2022-11-29T11:11:59.912Z,76.66
2022-11-29T11:14:36.359Z,75.57
2022-11-29T11:17:32.671Z,76.05
2022-11-29T11:20:06.749Z,75.17
2022-11-29T11:22:36.547Z,76.03
2022-11-29T11:25:31.739Z,76.29
2022-11-29T11:28:22.282Z,76.22
2022-11-29T11:31:04.998Z,77.23
2022-11-29T11:33:37.785Z,77.22
2022-11-29T11:36:26.136Z,75.73
2022-11-29T11:39:09.348Z,74.60
2022-11-29T11:42:01.860Z,74.94
2022-11-29T11:44:48.661Z,74.96
2022-11-29T11:47:24.539Z,76.25
2022-11-29T11:50:02.187Z,76.70
2022-11-29T11:52:53.171Z,78.01
2022-11-29T11:55:30.367Z,79.07
2022-11-29T11:58:16.104Z,79.55
2022-11-29T12:01:03.980Z,79.32
2022-11-29T12:04:08.585Z,79.35
2022-11-29T12:06:58.916Z,78.56
2022-11-29T12:09:42.543Z,80.20
2022-11-29T12:12:24.323Z,79.76
2022-11-29T12:15:03.081Z,77.53
2022-11-29T12:18:08.549Z,78.66
2022-11-29T12:21:00.757Z,77.80
2022-11-29T12:23:30.547Z,78.67
2022-11-29T12:26:03.586Z,79.64
2022-11-29T12:28:39.381Z,78.97
2022-11-29T12:31:41.491Z,79.89
2022-11-29T12:34:46.063Z,79.70
2022-11-29T12:37:33.102Z,79.23
2022-11-29T12:40:11.792Z,81.25
2022-11-29T12:43:00.298Z,80.98
2022-11-29T12:46:09.035Z,81.24
2022-11-29T12:48:50.952Z,79.87
2022-11-29T12:51:51.835Z,80.28
2022-11-29T12:54:45.336Z,80.29
2022-11-29T12:57:58.246Z,79.49
2022-11-29T13:00:35.210Z,80.35
2022-11-29T13:03:55.733Z,82.33
2022-11-29T13:06:50.295Z,82.24
2022-11-29T13:09:46.196Z,83.22
2022-11-29T13:12:42.064Z,81.60
2022-11-29T13:15:22.987Z,81.08
2022-11-29T13:18:23.293Z,82.08
2022-11-29T13:21:28.144Z,82.54
2022-11-29T13:24:15.697Z,81.87
2022-11-29T13:26:48.070Z,79.81
2022-11-29T13:29:17.753Z,81.31
2022-11-29T13:31:47.322Z,79.93
2022-11-29T13:34:29.068Z,80.95
2022-11-29T13:37:20.200Z,81.91
2022-11-29T13:40:14.105Z,81.81
2022-11-29T13:43:17.733Z,82.63
2022-11-29T13:46:01.650Z,82.90
2022-11-29T13:48:30.996Z,84.13
2022-11-29T13:50:58.614Z,83.82
2022-11-29T13:53:48.449Z,84.81
2022-11-29T13:56:32.936Z,84.30
2022-11-29T13:59:01.217Z,83.33
2022-11-29T14:01:28.978Z,83.04
2022-11-29T14:04:14.675Z,82.71
2022-11-29T14:06:41.988Z,83.45
2022-11-29T14:09:58.460Z,82.22
2022-11-29T14:13:05.969Z,84.84
2022-11-29T14:15:33.324Z,84.17
2022-11-29T14:18:08.605Z,83.99
2022-11-29T14:20:53.383Z,83.41
2022-11-29T14:23:42.985Z,82.98
2022-11-29T14:26:09.870Z,83.66
2022-11-29T14:28:39.888Z,83.60
2022-11-29T14:31:09.531Z,84.14
2022-11-29T14:34:03.538Z,86.20
2022-11-29T14:36:54.079Z,84.67
2022-11-29T14:39:41.295Z,84.99
2022-11-29T14:42:19.506Z,85.34
2022-11-29T14:44:54.582Z,85.68
2022-11-29T14:47:31.927Z,84.90
2022-11-29T14:50:07.585Z,84.59
2022-11-29T14:52:51.019Z,84.70
2022-11-29T14:55:17.889Z,84.77
2022-11-29T14:57:50.266Z,84.56
2022-11-29T15:00:21.519Z,85.30
2022-11-29T15:02:57.930Z,85.44
2022-11-29T15:05:46.801Z,84.12
2022-11-29T15:08:44.363Z,84.65
2022-11-29T15:11:33.090Z,85.72
2022-11-29T15:14:12.547Z,84.55
2022-11-29T15:16:58.814Z,85.41
2022-11-29T15:20:11.209Z,86.02
2022-11-29T15:22:53.640Z,85.26
2022-11-29T15:25:31.363Z,85.59
2022-11-29T15:28:03.134Z,85.66
2022-11-29T15:30:34.973Z,86.04
2022-11-29T15:33:05.943Z,85.75
2022-11-29T15:35:36.928Z,86.06
2022-11-29T15:38:06.045Z,86.43
2022-11-29T15:40:37.159Z,84.52
2022-11-29T15:43:23.492Z,85.30
2022-11-29T15:45:55.749Z,84.93
2022-11-29T15:48:27.931Z,86.14
2022-11-29T15:51:03.872Z,86.63
2022-11-29T15:53:48.278Z,85.83
2022-11-29T15:56:55.972Z,84.14
2022-11-29T15:59:48.227Z,84.13
2022-11-29T16:02:31.689Z,84.84
2022-11-29T16:05:27.531Z,85.10
2022-11-29T16:07:59.915Z,83.92
2022-11-29T16:10:43.448Z,83.93
2022-11-29T16:14:01.215Z,82.25
2022-11-29T16:16:32.835Z,81.89
2022-11-29T16:19:29.965Z,83.91
2022-11-29T16:22:24.090Z,83.95
2022-11-29T16:25:03.862Z,86.03
2022-11-29T16:27:37.271Z,84.81
2022-11-29T16:30:08.388Z,86.78
2022-11-29T16:32:41.708Z,85.30
2022-11-29T16:35:29.740Z,83.30
2022-11-29T16:38:00.546Z,84.12
2022-11-29T16:40:34.496Z,84.28
2022-11-29T16:43:06.485Z,83.26
2022-11-29T16:45:41.515Z,84.86
2022-11-29T16:48:30.483Z,85.25
2022-11-29T16:51:13.421Z,85.24
2022-11-29T16:53:49.819Z,86.92
2022-11-29T16:56:28.284Z,86.56
2022-11-29T16:59:20.560Z,86.31
2022-11-29T17:01:52.541Z,87.91
2022-11-29T17:04:23.492Z,87.35
2022-11-29T17:06:57.784Z,85.57
2022-11-29T17:09:31.699Z,86.48
2022-11-29T17:12:02.898Z,86.76
2022-11-29T17:14:31.524Z,86.56
2022-11-29T17:17:01.386Z,86.03
2022-11-29T17:19:31.957Z,85.77
2022-11-29T17:22:04.891Z,87.08
2022-11-29T17:24:37.066Z,88.03
2022-11-29T17:27:04.608Z,88.11
2022-11-29T17:29:31.702Z,87.13
2022-11-29T17:31:58.839Z,85.97
2022-11-29T17:34:25.837Z,85.78
2022-11-29T17:36:55.106Z,86.54
2022-11-29T17:39:22.633Z,87.10
2022-11-29T17:42:10.983Z,87.66
2022-11-29T17:45:17.630Z,86.63
2022-11-29T17:48:13.030Z,86.19
2022-11-29T17:50:51.411Z,84.42
2022-11-29T17:53:51.868Z,86.04
2022-11-29T17:56:32.182Z,88.49
2022-11-29T17:59:32.958Z,87.84
2022-11-29T18:02:37.564Z,87.44
2022-11-29T18:05:36.519Z,87.51
2022-11-29T18:08:15.773Z,87.92
2022-11-29T18:11:44.913Z,87.41
2022-11-29T18:14:50.895Z,89.39
2022-11-29T18:17:53.798Z,89.44
2022-11-29T18:20:51.705Z,89.20
2022-11-29T18:24:01.626Z,89.46
2022-11-29T18:27:08.166Z,89.88
2022-11-29T18:29:58.112Z,88.93
2022-11-29T18:32:53.807Z,90.52
2022-11-29T18:36:07.532Z,91.40
2022-11-29T18:38:46.166Z,92.37
2022-11-29T18:41:49.831Z,93.58
2022-11-29T18:47:53.009Z,93.36
2022-11-29T18:57:44.722Z,90.57
2022-11-29T19:03:25.982Z,90.46
2022-11-29T19:05:54.172Z,91.07
2022-11-29T19:08:23.599Z,91.25
2022-11-29T19:10:50.416Z,89.86
2022-11-29T19:13:19.412Z,88.16
2022-11-29T19:15:57.609Z,88.33
2022-11-29T19:18:26.845Z,88.20
2022-11-29T19:20:53.874Z,87.14
2022-11-29T19:23:21.679Z,87.02
2022-11-29T19:25:51.616Z,86.95
2022-11-29T19:28:21.075Z,86.60
2022-11-29T19:30:58.819Z,87.13
2022-11-29T19:33:26.085Z,87.47
2022-11-29T19:35:58.360Z,87.83
2022-11-29T19:38:29.999Z,87.60
2022-11-29T19:40:56.885Z,87.93
2022-11-29T19:43:23.860Z,88.41
2022-11-29T19:45:50.994Z,86.60
2022-11-29T19:48:18.017Z,88.82
2022-11-29T19:50:47.253Z,87.23
2022-11-29T19:53:18.540Z,87.40
2022-11-29T19:55:45.652Z,87.06
2022-11-29T19:58:14.976Z,85.81
2022-11-29T20:00:42.027Z,86.03
2022-11-29T20:03:13.859Z,85.47
2022-11-29T20:05:43.110Z,85.36
2022-11-29T20:08:18.431Z,85.25
2022-11-29T20:10:53.545Z,85.97
2022-11-29T20:13:21.160Z,85.74
2022-11-29T20:15:48.445Z,84.79
2022-11-29T20:18:15.544Z,83.76
2022-11-29T20:20:42.489Z,84.65
2022-11-29T20:23:11.898Z,84.30
2022-11-29T20:25:38.876Z,83.74
2022-11-29T20:28:08.456Z,83.67
2022-11-29T20:30:38.066Z,84.07
2022-11-29T20:33:07.570Z,83.36
2022-11-29T20:35:37.723Z,85.48
2022-11-29T20:38:41.782Z,84.90
2022-11-29T20:41:25.370Z,85.33
2022-11-29T20:44:02.503Z,85.15
2022-11-29T20:46:31.160Z,85.95
2022-11-29T20:49:06.329Z,87.34
2022-11-29T20:51:44.624Z,87.71
2022-11-29T20:54:15.034Z,87.28
2022-11-29T20:56:42.055Z,87.98
2022-11-29T20:59:09.113Z,88.16
2022-11-29T21:01:36.185Z,88.15
2022-11-29T21:04:03.370Z,87.45
2022-11-29T21:06:30.508Z,86.81
2022-11-29T21:08:57.609Z,87.45
2022-11-29T21:11:25.407Z,88.14
2022-11-29T21:13:52.695Z,87.85
2022-11-29T21:16:27.675Z,86.36
2022-11-29T21:19:00.715Z,86.86
2022-11-29T21:21:44.811Z,87.75
2022-11-29T21:24:46.668Z,88.04
2022-11-29T21:27:33.219Z,88.41
2022-11-29T21:30:06.175Z,89.35
2022-11-29T21:32:36.570Z,90.20
2022-11-29T21:35:03.758Z,88.92
2022-11-29T21:37:33.581Z,88.91
2022-11-29T21:40:00.811Z,89.39
2022-11-29T21:42:27.733Z,89.00
2022-11-29T21:44:54.753Z,89.47
2022-11-29T21:47:24.697Z,88.73
2022-11-29T21:49:52.848Z,88.98
2022-11-29T21:52:22.846Z,88.55
2022-11-29T21:54:50.438Z,88.06
2022-11-29T21:57:17.556Z,88.37
2022-11-29T21:59:44.562Z,89.43
2022-11-29T22:02:11.634Z,88.69
2022-11-29T22:04:38.828Z,88.63
2022-11-29T22:07:10.350Z,87.06
2022-11-29T22:09:37.266Z,87.80
2022-11-29T22:12:25.766Z,86.55
2022-11-29T22:14:51.313Z,87.50
2022-11-29T22:17:18.255Z,88.18
2022-11-29T22:19:47.727Z,87.88
2022-11-29T22:22:14.797Z,87.60
2022-11-29T22:24:41.676Z,86.11
2022-11-29T22:27:08.663Z,86.71
2022-11-29T22:29:37.854Z,86.15
2022-11-29T22:32:05.240Z,85.79
2022-11-29T22:34:34.695Z,86.26
2022-11-29T22:37:01.609Z,86.55
2022-11-29T22:39:31.090Z,87.53
2022-11-29T22:41:58.005Z,86.04
2022-11-29T22:44:30.223Z,87.38
2022-11-29T22:47:04.199Z,87.26
2022-11-29T22:49:33.200Z,88.46
2022-11-29T22:52:02.665Z,89.15
2022-11-29T22:54:29.701Z,89.57
2022-11-29T22:57:01.259Z,89.87
2022-11-29T22:59:30.203Z,90.77
2022-11-29T23:02:00.304Z,89.54
2022-11-29T23:04:27.315Z,87.83
2022-11-29T23:06:54.219Z,88.10
2022-11-29T23:09:23.866Z,86.59
2022-11-29T23:11:56.275Z,86.94
2022-11-29T23:14:25.902Z,85.92
2022-11-29T23:16:53.120Z,86.20
2022-11-29T23:19:20.450Z,86.76
2022-11-29T23:21:47.936Z,87.06
2022-11-29T23:24:15.950Z,86.84
2022-11-29T23:26:51.476Z,86.91
2022-11-29T23:29:20.044Z,87.21
2022-11-29T23:31:50.364Z,86.91
2022-11-29T23:34:17.613Z,86.10
2022-11-29T23:36:52.704Z,85.66
2022-11-29T23:39:20.589Z,84.67
2022-11-29T23:41:47.576Z,85.84
2022-11-29T23:44:16.752Z,86.75
2022-11-29T23:46:43.637Z,86.43
2022-11-29T23:49:10.659Z,86.43
2022-11-29T23:51:37.487Z,86.90
2022-11-29T23:54:09.506Z,86.91
2022-11-29T23:56:38.660Z,88.31
2022-11-29T23:59:05.737Z,88.91
